createdAt,value
2022-12-25T00:02:13.711Z,5.92
2022-12-25T00:04:41.687Z,5.81
2022-12-25T00:07:09.585Z,5.71
2022-12-25T00:09:37.476Z,5.67
2022-12-25T00:12:07.156Z,5.61
2022-12-25T00:14:35.010Z,5.65
2022-12-25T00:17:02.845Z,5.66
2022-12-25T00:19:30.729Z,5.69
2022-12-25T00:21:58.574Z,5.75
2022-12-25T00:24:26.479Z,5.80
2022-12-25T00:26:54.363Z,5.88
2022-12-25T00:29:23.625Z,5.89
2022-12-25T00:31:51.614Z,5.92
2022-12-25T00:34:19.631Z,6.00
2022-12-25T00:36:47.514Z,6.04
2022-12-25T00:39:15.420Z,6.08
2022-12-25T00:42:00.546Z,6.03
2022-12-25T00:44:29.927Z,6.04
2022-12-25T00:46:57.770Z,6.05
2022-12-25T00:49:25.891Z,6.09
2022-12-25T00:51:54.076Z,6.12
2022-12-25T00:54:22.578Z,6.13
2022-12-25T00:56:50.447Z,6.11
2022-12-25T00:59:18.327Z,6.18
2022-12-25T01:01:47.746Z,6.23
2022-12-25T01:04:15.836Z,6.17
2022-12-25T01:06:43.715Z,6.01
2022-12-25T01:09:28.788Z,6.06
2022-12-25T01:11:56.696Z,6.06
2022-12-25T01:14:24.609Z,6.11
2022-12-25T01:16:53.942Z,6.09
2022-12-25T01:19:21.854Z,6.05
2022-12-25T01:21:49.771Z,6.01
2022-12-25T01:24:17.682Z,6.04
2022-12-25T01:26:45.601Z,5.95
2022-12-25T01:29:13.512Z,6.03
2022-12-25T01:31:41.386Z,6.02
2022-12-25T01:34:10.685Z,6.05
2022-12-25T01:36:38.591Z,6.04
2022-12-25T01:39:06.827Z,5.99
2022-12-25T01:41:34.773Z,5.95
2022-12-25T01:44:06.486Z,5.94
2022-12-25T01:46:35.970Z,5.92
2022-12-25T01:49:06.212Z,6.04
2022-12-25T01:51:40.822Z,6.09
2022-12-25T01:54:13.778Z,6.27
2022-12-25T01:56:44.865Z,6.32
2022-12-25T01:59:15.224Z,6.42
2022-12-25T02:01:43.270Z,6.44
2022-12-25T02:04:21.042Z,6.45
2022-12-25T02:06:52.996Z,6.45
2022-12-25T02:09:20.821Z,6.38
2022-12-25T02:12:00.669Z,6.30
2022-12-25T02:14:31.997Z,6.35
2022-12-25T02:17:07.129Z,6.21
2022-12-25T02:19:53.111Z,6.39
2022-12-25T02:22:34.662Z,6.29
2022-12-25T02:25:18.249Z,6.38
2022-12-25T02:28:14.801Z,6.46
2022-12-25T02:30:46.945Z,6.46
2022-12-25T02:33:37.284Z,6.46
2022-12-25T02:36:10.450Z,6.26
2022-12-25T02:39:02.346Z,6.35
2022-12-25T02:41:35.021Z,6.40
2022-12-25T02:44:26.296Z,6.45
2022-12-25T02:47:12.061Z,6.41
2022-12-25T02:49:59.136Z,6.31
2022-12-25T02:52:47.523Z,6.50
2022-12-25T02:55:41.666Z,6.56
2022-12-25T02:58:31.068Z,6.47
2022-12-25T03:01:22.123Z,6.49
2022-12-25T03:04:09.837Z,6.45
2022-12-25T03:06:46.681Z,6.56
2022-12-25T03:09:38.296Z,6.60
2022-12-25T03:12:12.369Z,6.12
2022-12-25T03:14:58.028Z,6.56
2022-12-25T03:17:27.826Z,6.61
2022-12-25T03:20:13.013Z,6.60
2022-12-25T03:23:01.555Z,6.53
2022-12-25T03:25:47.541Z,6.57
2022-12-25T03:28:15.891Z,6.59
2022-12-25T03:31:06.067Z,6.51
2022-12-25T03:34:10.096Z,6.58
2022-12-25T03:36:50.712Z,6.57
2022-12-25T03:39:44.231Z,6.58
2022-12-25T03:42:31.665Z,6.43
2022-12-25T03:45:24.078Z,6.63
2022-12-25T03:48:11.893Z,6.56
2022-12-25T03:51:02.689Z,6.62
2022-12-25T03:53:51.156Z,6.58
2022-12-25T03:56:39.160Z,6.58
2022-12-25T03:59:24.551Z,6.51
2022-12-25T04:02:10.789Z,6.53
2022-12-25T04:04:56.660Z,6.50
2022-12-25T04:07:43.300Z,6.53
2022-12-25T04:10:29.419Z,6.22
2022-12-25T04:13:14.632Z,6.40
2022-12-25T04:16:00.005Z,6.43
2022-12-25T04:18:45.287Z,6.35
2022-12-25T04:21:30.618Z,6.38
2022-12-25T04:24:17.291Z,6.39
2022-12-25T04:27:02.755Z,6.51
2022-12-25T04:29:59.624Z,6.44
2022-12-25T04:32:44.918Z,6.13
2022-12-25T04:35:30.431Z,6.39
2022-12-25T04:37:58.437Z,6.08
2022-12-25T04:40:27.678Z,6.29
2022-12-25T04:42:55.543Z,6.28
2022-12-25T04:45:23.490Z,6.27
2022-12-25T04:47:51.367Z,6.28
2022-12-25T04:50:19.434Z,6.27
2022-12-25T04:52:47.288Z,6.28
2022-12-25T04:55:15.173Z,6.17
2022-12-25T04:57:44.485Z,6.26
2022-12-25T05:00:13.273Z,5.59
2022-12-25T05:02:41.326Z,6.28
2022-12-25T05:05:09.704Z,5.54
2022-12-25T05:07:37.679Z,6.19
2022-12-25T05:10:06.061Z,6.19
2022-12-25T05:12:33.971Z,5.83
2022-12-25T05:15:03.244Z,6.10
2022-12-25T05:17:31.119Z,5.89
2022-12-25T05:19:58.991Z,5.94
2022-12-25T05:22:26.866Z,5.79
2022-12-25T05:24:54.786Z,5.90
2022-12-25T05:27:22.646Z,5.86
2022-12-25T05:29:50.506Z,5.90
2022-12-25T05:32:19.800Z,5.82
2022-12-25T05:34:47.970Z,5.89
2022-12-25T05:37:15.808Z,5.86
2022-12-25T05:39:43.712Z,5.85
2022-12-25T05:42:11.560Z,5.36
2022-12-25T05:44:39.450Z,5.98
2022-12-25T05:47:07.428Z,6.08
2022-12-25T05:49:36.746Z,6.10
2022-12-25T05:52:05.137Z,5.99
2022-12-25T05:54:33.076Z,6.22
2022-12-25T05:57:00.980Z,6.05
2022-12-25T05:59:30.675Z,5.97
2022-12-25T06:01:58.751Z,6.18
2022-12-25T06:04:27.572Z,6.19
2022-12-25T06:06:57.029Z,6.31
2022-12-25T06:09:24.958Z,6.28
2022-12-25T06:11:52.779Z,6.83
2022-12-25T06:14:20.639Z,6.99
2022-12-25T06:16:52.172Z,7.36
2022-12-25T06:19:20.361Z,7.67
2022-12-25T06:21:48.698Z,7.96
2022-12-25T06:24:21.254Z,8.27
2022-12-25T06:26:50.093Z,8.41
2022-12-25T06:29:19.321Z,8.37
2022-12-25T06:31:47.272Z,8.28
2022-12-25T06:34:16.501Z,8.43
2022-12-25T06:36:44.418Z,8.57
2022-12-25T06:39:12.282Z,9.24
2022-12-25T06:41:41.510Z,9.23
2022-12-25T06:44:10.461Z,9.50
2022-12-25T06:46:38.378Z,9.84
2022-12-25T06:49:06.334Z,10.17
2022-12-25T06:51:34.619Z,10.15
2022-12-25T06:54:04.261Z,10.41
2022-12-25T06:56:33.696Z,10.52
2022-12-25T06:59:05.286Z,10.40
2022-12-25T07:01:36.893Z,10.49
2022-12-25T07:04:07.597Z,10.86
2022-12-25T07:06:35.715Z,11.33
2022-12-25T07:09:03.885Z,11.43
2022-12-25T07:11:31.761Z,12.02
2022-12-25T07:13:59.690Z,11.97
2022-12-25T07:16:29.033Z,11.61
2022-12-25T07:18:56.964Z,11.38
2022-12-25T07:21:24.851Z,11.35
2022-12-25T07:23:52.724Z,11.64
2022-12-25T07:26:20.968Z,11.70
2022-12-25T07:28:48.847Z,11.73
2022-12-25T07:31:18.470Z,11.93
2022-12-25T07:33:48.060Z,12.56
2022-12-25T07:36:16.496Z,12.38
2022-12-25T07:38:44.711Z,12.70
2022-12-25T07:41:13.956Z,12.66
2022-12-25T07:43:41.932Z,12.68
2022-12-25T07:46:10.784Z,12.64
2022-12-25T07:48:38.842Z,12.33
2022-12-25T07:51:11.897Z,12.17
2022-12-25T07:53:41.929Z,12.14
2022-12-25T07:56:12.990Z,12.19
2022-12-25T07:58:41.769Z,12.20
2022-12-25T08:01:12.946Z,12.27
2022-12-25T08:03:41.124Z,12.31
2022-12-25T08:06:12.615Z,12.81
2022-12-25T08:08:42.164Z,12.29
2022-12-25T08:11:10.908Z,12.14
2022-12-25T08:13:39.279Z,12.33
2022-12-25T08:16:10.061Z,12.12
2022-12-25T08:18:38.864Z,12.36
2022-12-25T08:21:08.795Z,12.56
2022-12-25T08:23:40.261Z,12.51
2022-12-25T08:26:09.574Z,12.60
2022-12-25T08:28:37.930Z,12.87
2022-12-25T08:31:11.360Z,13.07
2022-12-25T08:33:39.874Z,12.60
2022-12-25T08:36:09.908Z,13.54
2022-12-25T08:38:39.781Z,13.43
2022-12-25T08:41:08.124Z,13.33
2022-12-25T08:43:36.434Z,13.50
2022-12-25T08:46:05.407Z,13.22
2022-12-25T08:48:33.697Z,12.95
2022-12-25T08:51:02.509Z,13.31
2022-12-25T08:53:30.414Z,13.34
2022-12-25T08:56:00.575Z,13.34
2022-12-25T08:58:28.989Z,13.44
2022-12-25T09:00:57.613Z,13.58
2022-12-25T09:03:26.296Z,12.85
2022-12-25T09:05:55.228Z,13.52
2022-12-25T09:08:23.488Z,13.21
2022-12-25T09:10:51.364Z,12.90
2022-12-25T09:13:20.637Z,12.46
2022-12-25T09:15:48.519Z,13.40
2022-12-25T09:18:16.477Z,13.27
2022-12-25T09:20:44.363Z,13.61
2022-12-25T09:23:14.372Z,14.03
2022-12-25T09:25:42.500Z,14.13
2022-12-25T09:28:10.385Z,13.97
2022-12-25T09:30:39.727Z,14.08
2022-12-25T09:33:07.611Z,14.21
2022-12-25T09:35:35.782Z,13.99
2022-12-25T09:38:03.684Z,14.08
2022-12-25T09:40:33.360Z,14.08
2022-12-25T09:43:03.142Z,13.89
2022-12-25T09:45:36.391Z,14.58
2022-12-25T09:48:06.756Z,14.64
2022-12-25T09:50:43.835Z,14.62
2022-12-25T09:53:17.022Z,14.39
2022-12-25T09:55:49.890Z,14.82
2022-12-25T09:58:17.814Z,14.46
2022-12-25T10:00:52.960Z,14.59
2022-12-25T10:03:43.811Z,14.86
2022-12-25T10:06:19.311Z,15.36
2022-12-25T10:09:19.939Z,15.14
2022-12-25T10:12:02.388Z,14.74
2022-12-25T10:14:41.764Z,14.34
2022-12-25T10:17:27.371Z,14.23
2022-12-25T10:20:08.162Z,14.50
2022-12-25T10:22:39.549Z,14.25
2022-12-25T10:25:16.017Z,14.16
2022-12-25T10:27:44.464Z,13.99
2022-12-25T10:30:18.163Z,14.64
2022-12-25T10:32:47.397Z,14.99
2022-12-25T10:35:19.778Z,15.20
2022-12-25T10:38:02.296Z,15.18
2022-12-25T10:40:38.125Z,15.10
2022-12-25T10:43:12.711Z,15.20
2022-12-25T10:45:47.853Z,14.84
2022-12-25T10:48:23.812Z,15.10
2022-12-25T10:50:53.491Z,15.48
2022-12-25T10:53:24.435Z,15.21
2022-12-25T10:56:00.643Z,14.57
2022-12-25T10:58:29.349Z,14.67
2022-12-25T11:01:01.109Z,14.60
2022-12-25T11:03:32.486Z,14.74
2022-12-25T11:06:02.944Z,15.09
2022-12-25T11:08:34.760Z,15.07
2022-12-25T11:11:06.294Z,14.80
2022-12-25T11:13:37.347Z,14.81
2022-12-25T11:16:09.424Z,14.88
2022-12-25T11:18:46.940Z,14.54
2022-12-25T11:21:23.262Z,14.21
2022-12-25T11:23:56.806Z,14.08
2022-12-25T11:26:25.025Z,14.30
2022-12-25T11:28:55.297Z,14.27
2022-12-25T11:31:24.906Z,14.23
2022-12-25T11:33:56.889Z,14.24
2022-12-25T11:36:32.837Z,14.52
2022-12-25T11:39:09.041Z,14.01
2022-12-25T11:41:38.930Z,14.37
2022-12-25T11:44:19.265Z,14.51
2022-12-25T11:46:55.058Z,14.43
2022-12-25T11:49:23.956Z,14.15
2022-12-25T11:51:56.589Z,14.32
2022-12-25T11:54:28.994Z,14.39
2022-12-25T11:56:58.861Z,14.24
2022-12-25T11:59:31.663Z,14.33
2022-12-25T12:02:04.622Z,14.57
2022-12-25T12:04:42.014Z,14.33
2022-12-25T12:07:21.964Z,13.96
2022-12-25T12:09:56.843Z,14.05
2022-12-25T12:12:46.654Z,13.96
2022-12-25T12:15:28.324Z,14.23
2022-12-25T12:17:56.328Z,14.09
2022-12-25T12:20:32.600Z,14.21
2022-12-25T12:23:06.096Z,14.06
2022-12-25T12:25:39.944Z,14.18
2022-12-25T12:28:13.881Z,14.17
2022-12-25T12:30:41.930Z,14.14
2022-12-25T12:33:21.628Z,14.04
2022-12-25T12:35:50.296Z,12.95
2022-12-25T12:38:23.463Z,13.93
2022-12-25T12:40:54.952Z,13.54
2022-12-25T12:43:33.045Z,13.68
2022-12-25T12:46:06.001Z,12.87
2022-12-25T12:48:41.072Z,14.05
2022-12-25T12:51:10.902Z,14.05
2022-12-25T12:53:41.438Z,14.15
2022-12-25T12:56:15.860Z,14.18
2022-12-25T12:58:48.510Z,14.34
2022-12-25T13:01:40.924Z,14.22
2022-12-25T13:04:35.143Z,14.14
2022-12-25T13:07:12.299Z,13.94
2022-12-25T13:10:00.139Z,13.94
2022-12-25T13:12:28.147Z,13.97
2022-12-25T13:14:56.250Z,13.97
2022-12-25T13:17:26.977Z,13.93
2022-12-25T13:19:57.897Z,13.79
2022-12-25T13:22:31.000Z,13.61
2022-12-25T13:25:02.286Z,13.49
2022-12-25T13:27:32.149Z,13.51
2022-12-25T13:30:00.741Z,12.79
2022-12-25T13:32:31.823Z,13.33
2022-12-25T13:35:00.584Z,13.43
2022-12-25T13:37:31.485Z,13.20
2022-12-25T13:40:02.353Z,13.29
2022-12-25T13:42:32.799Z,13.19
2022-12-25T13:45:03.377Z,13.05
2022-12-25T13:47:32.770Z,13.03
2022-12-25T13:50:03.414Z,13.11
2022-12-25T13:52:35.603Z,13.21
2022-12-25T13:55:13.707Z,12.95
2022-12-25T13:57:44.865Z,12.84
2022-12-25T14:00:20.380Z,12.73
2022-12-25T14:02:48.997Z,12.47
2022-12-25T14:05:28.957Z,12.35
2022-12-25T14:07:58.847Z,12.54
2022-12-25T14:10:32.000Z,12.02
2022-12-25T14:13:03.521Z,12.26
2022-12-25T14:15:33.989Z,12.02
2022-12-25T14:18:02.246Z,12.36
2022-12-25T14:20:32.257Z,12.27
2022-12-25T14:23:01.246Z,12.02
2022-12-25T14:25:34.403Z,12.14
2022-12-25T14:28:08.280Z,11.76
2022-12-25T14:30:37.430Z,11.83
2022-12-25T14:33:07.642Z,11.29
2022-12-25T14:35:35.979Z,11.52
2022-12-25T14:38:03.941Z,11.44
2022-12-25T14:40:35.979Z,11.26
2022-12-25T14:43:06.181Z,11.31
2022-12-25T14:45:36.001Z,11.25
2022-12-25T14:48:22.868Z,11.23
2022-12-25T14:51:00.171Z,11.09
2022-12-25T14:53:36.358Z,11.00
2022-12-25T14:56:07.843Z,10.73
2022-12-25T14:58:42.059Z,10.86
2022-12-25T15:01:23.122Z,10.85
2022-12-25T15:03:51.155Z,10.78
2022-12-25T15:06:22.473Z,10.72
2022-12-25T15:08:58.320Z,10.60
2022-12-25T15:11:28.314Z,10.72
2022-12-25T15:13:56.249Z,10.60
2022-12-25T15:16:26.831Z,10.60
2022-12-25T15:18:55.266Z,10.53
2022-12-25T15:21:26.910Z,10.43
2022-12-25T15:23:55.517Z,10.40
2022-12-25T15:26:24.327Z,10.40
2022-12-25T15:28:53.861Z,10.35
2022-12-25T15:31:25.324Z,10.32
2022-12-25T15:33:54.440Z,10.30
2022-12-25T15:36:22.942Z,10.19
2022-12-25T15:38:51.331Z,10.31
2022-12-25T15:41:36.893Z,10.20
2022-12-25T15:44:07.773Z,10.30
2022-12-25T15:46:36.002Z,10.23
2022-12-25T15:49:04.022Z,10.08
2022-12-25T15:51:31.990Z,10.20
2022-12-25T15:54:00.118Z,10.00
2022-12-25T15:56:29.048Z,10.05
2022-12-25T15:58:57.012Z,9.58
2022-12-25T16:01:26.339Z,9.88
2022-12-25T16:03:54.337Z,9.72
2022-12-25T16:06:22.381Z,9.83
2022-12-25T16:08:50.292Z,9.81
2022-12-25T16:11:18.140Z,9.62
2022-12-25T16:13:45.970Z,9.69
2022-12-25T16:16:13.962Z,9.71
2022-12-25T16:18:47.408Z,9.65
2022-12-25T16:21:18.471Z,9.65
2022-12-25T16:23:46.410Z,9.70
2022-12-25T16:26:14.383Z,9.61
2022-12-25T16:28:42.358Z,9.66
2022-12-25T16:31:10.439Z,9.62
2022-12-25T16:33:38.285Z,9.57
2022-12-25T16:36:08.441Z,9.54
2022-12-25T16:38:36.685Z,9.47
2022-12-25T16:41:04.597Z,9.38
2022-12-25T16:43:32.469Z,9.34
2022-12-25T16:46:00.376Z,9.35
2022-12-25T16:48:28.227Z,9.25
2022-12-25T16:50:56.169Z,9.27
2022-12-25T16:53:25.598Z,9.27
2022-12-25T16:55:53.487Z,9.21
2022-12-25T16:58:21.416Z,9.03
2022-12-25T17:00:49.768Z,9.03
2022-12-25T17:03:17.837Z,9.09
2022-12-25T17:05:45.839Z,9.05
2022-12-25T17:08:13.719Z,9.01
2022-12-25T17:10:42.980Z,9.07
2022-12-25T17:13:11.116Z,8.95
2022-12-25T17:15:39.006Z,9.04
2022-12-25T17:18:08.806Z,9.02
2022-12-25T17:20:38.115Z,9.05
2022-12-25T17:23:06.222Z,9.01
2022-12-25T17:25:34.811Z,8.97
2022-12-25T17:28:04.127Z,8.89
2022-12-25T17:30:33.061Z,8.79
2022-12-25T17:33:00.997Z,8.88
2022-12-25T17:35:28.946Z,8.78
2022-12-25T17:37:56.918Z,8.80
2022-12-25T17:40:26.623Z,7.48
2022-12-25T17:42:54.503Z,8.80
2022-12-25T17:45:23.762Z,8.66
2022-12-25T17:47:54.945Z,8.64
2022-12-25T17:50:25.467Z,8.62
2022-12-25T17:52:53.852Z,8.59
2022-12-25T17:55:21.701Z,8.57
2022-12-25T17:57:49.569Z,8.53
2022-12-25T18:00:19.463Z,8.61
2022-12-25T18:02:48.879Z,8.63
2022-12-25T18:05:17.051Z,8.27
2022-12-25T18:07:44.977Z,8.55
2022-12-25T18:10:14.823Z,8.64
2022-12-25T18:12:44.748Z,8.61
2022-12-25T18:15:12.804Z,8.56
2022-12-25T18:17:40.689Z,8.52
2022-12-25T18:20:10.797Z,8.40
2022-12-25T18:22:38.717Z,8.27
2022-12-25T18:25:07.167Z,8.26
2022-12-25T18:27:35.147Z,8.16
2022-12-25T18:30:03.024Z,7.81
2022-12-25T18:32:30.883Z,8.19
2022-12-25T18:34:58.848Z,8.22
2022-12-25T18:37:31.877Z,8.22
2022-12-25T18:40:02.628Z,7.73
2022-12-25T18:42:43.872Z,8.20
2022-12-25T18:45:14.391Z,8.18
2022-12-25T18:47:42.531Z,8.15
2022-12-25T18:50:11.443Z,7.61
2022-12-25T18:52:48.781Z,8.12
2022-12-25T18:55:19.297Z,8.07
2022-12-25T18:57:47.173Z,8.03
2022-12-25T19:00:15.501Z,7.80
2022-12-25T19:02:43.569Z,7.43
2022-12-25T19:05:11.549Z,8.05
2022-12-25T19:07:40.868Z,8.04
2022-12-25T19:10:10.296Z,8.04
2022-12-25T19:12:38.352Z,7.94
2022-12-25T19:15:07.222Z,7.98
2022-12-25T19:17:35.339Z,7.97
2022-12-25T19:20:03.238Z,7.95
2022-12-25T19:22:31.106Z,7.90
2022-12-25T19:25:00.498Z,7.26
2022-12-25T19:27:28.405Z,7.62
2022-12-25T19:29:56.253Z,7.36
2022-12-25T19:32:24.154Z,7.46
2022-12-25T19:34:52.228Z,7.25
2022-12-25T19:37:20.177Z,7.00
2022-12-25T19:39:48.265Z,6.83
2022-12-25T19:42:18.954Z,6.65
2022-12-25T19:44:46.850Z,6.57
2022-12-25T19:47:14.817Z,6.50
2022-12-25T19:49:43.925Z,6.29
2022-12-25T19:52:13.843Z,6.46
2022-12-25T19:54:41.741Z,6.22
2022-12-25T19:57:09.610Z,6.05
2022-12-25T19:59:38.850Z,6.35
2022-12-25T20:02:06.885Z,6.31
2022-12-25T20:04:34.965Z,6.33
2022-12-25T20:07:02.855Z,6.44
2022-12-25T20:09:32.670Z,6.41
2022-12-25T20:12:00.530Z,6.40
2022-12-25T20:14:28.427Z,6.32
2022-12-25T20:16:57.779Z,6.18
2022-12-25T20:19:25.670Z,6.08
2022-12-25T20:21:54.761Z,5.99
2022-12-25T20:24:24.684Z,5.96
2022-12-25T20:26:58.632Z,5.93
2022-12-25T20:29:26.969Z,5.48
2022-12-25T20:31:54.860Z,5.77
2022-12-25T20:34:24.226Z,5.67
2022-12-25T20:36:52.107Z,5.58
2022-12-25T20:39:19.970Z,5.05
2022-12-25T20:41:48.406Z,5.36
2022-12-25T20:44:16.354Z,5.53
2022-12-25T20:46:44.415Z,5.24
2022-12-25T20:49:12.357Z,5.12
2022-12-25T20:51:41.873Z,5.12
2022-12-25T20:54:11.046Z,5.02
2022-12-25T20:56:38.997Z,4.94
2022-12-25T20:59:06.910Z,4.86
2022-12-25T21:01:34.872Z,4.58
2022-12-25T21:04:02.967Z,4.68
2022-12-25T21:06:31.991Z,4.61
2022-12-25T21:09:01.577Z,4.47
2022-12-25T21:11:31.380Z,4.28
2022-12-25T21:13:59.504Z,4.40
2022-12-25T21:16:28.440Z,4.28
2022-12-25T21:18:56.406Z,4.28
2022-12-25T21:21:24.311Z,4.37
2022-12-25T21:23:52.241Z,4.40
2022-12-25T21:26:24.762Z,4.40
2022-12-25T21:28:55.091Z,4.08
2022-12-25T21:31:23.311Z,4.31
2022-12-25T21:33:53.701Z,4.32
2022-12-25T21:36:24.660Z,4.28
2022-12-25T21:38:57.790Z,4.28
2022-12-25T21:41:28.600Z,4.20
2022-12-25T21:43:57.221Z,3.78
2022-12-25T21:46:25.833Z,4.26
2022-12-25T21:48:54.205Z,3.80
2022-12-25T21:51:41.949Z,3.81
2022-12-25T21:54:10.666Z,4.41
2022-12-25T21:56:45.012Z,4.32
2022-12-25T21:59:16.331Z,4.51
2022-12-25T22:01:45.281Z,4.55
2022-12-25T22:04:14.499Z,4.54
2022-12-25T22:07:01.633Z,4.50
2022-12-25T22:09:29.694Z,4.34
2022-12-25T22:12:16.809Z,4.30
2022-12-25T22:14:55.004Z,4.37
2022-12-25T22:17:43.065Z,4.42
2022-12-25T22:20:13.663Z,4.61
2022-12-25T22:22:41.567Z,4.49
2022-12-25T22:25:10.894Z,4.50
2022-12-25T22:27:41.793Z,3.99
2022-12-25T22:30:12.272Z,4.58
2022-12-25T22:32:40.546Z,4.45
2022-12-25T22:35:09.297Z,4.38
2022-12-25T22:37:37.265Z,3.95
2022-12-25T22:40:06.622Z,4.12
2022-12-25T22:42:34.890Z,4.04
2022-12-25T22:45:04.482Z,4.00
2022-12-25T22:47:32.665Z,3.96
2022-12-25T22:50:00.762Z,3.84
2022-12-25T22:52:28.760Z,3.64
2022-12-25T22:54:56.699Z,3.34
2022-12-25T22:57:24.622Z,3.60
2022-12-25T22:59:53.272Z,3.52
2022-12-25T23:02:23.225Z,3.72
2022-12-25T23:04:51.373Z,3.77
2022-12-25T23:07:19.747Z,3.85
2022-12-25T23:09:47.902Z,3.60
2022-12-25T23:12:29.697Z,3.62
2022-12-25T23:14:58.039Z,3.79
2022-12-25T23:17:44.973Z,3.41
2022-12-25T23:20:32.279Z,3.63
2022-12-25T23:23:17.663Z,3.63
2022-12-25T23:26:03.153Z,3.58
2022-12-25T23:28:48.524Z,3.82
2022-12-25T23:31:16.566Z,4.26
2022-12-25T23:33:45.975Z,4.35
2022-12-25T23:36:13.880Z,3.86
2022-12-25T23:38:41.796Z,3.57
2022-12-25T23:41:09.729Z,3.54
2022-12-25T23:43:37.617Z,3.68
2022-12-25T23:46:05.697Z,4.27
2022-12-25T23:48:33.669Z,4.65
2022-12-25T23:51:05.646Z,4.68
2022-12-25T23:53:33.788Z,4.76
2022-12-25T23:56:03.030Z,4.28
2022-12-25T23:58:31.034Z,3.79
